createdAt,value
2023-02-28T00:09:15.039Z,1.75
2023-02-28T00:11:44.373Z,2.00
2023-02-28T00:24:51.796Z,1.40
2023-02-28T00:48:26.838Z,1.80
2023-02-28T00:51:19.751Z,1.60
2023-02-28T00:53:46.553Z,1.55
2023-02-28T00:57:04.307Z,1.48
2023-02-28T01:10:32.319Z,1.63
2023-02-28T01:13:25.666Z,2.03
2023-02-28T01:26:46.371Z,1.70
2023-02-28T01:35:49.934Z,1.65
2023-02-28T01:41:45.469Z,1.95
2023-02-28T01:54:16.101Z,1.45
2023-02-28T02:00:28.068Z,1.58
2023-02-28T02:06:27.334Z,1.52
2023-02-28T02:13:19.521Z,1.60
2023-02-28T02:25:49.911Z,1.70
2023-02-28T02:31:37.684Z,1.80
2023-02-28T02:38:06.713Z,1.65
2023-02-28T02:48:41.198Z,1.50
2023-02-28T02:52:11.152Z,1.50
2023-02-28T02:58:21.399Z,1.73
2023-02-28T03:14:15.326Z,1.55
2023-02-28T03:17:12.304Z,1.83
2023-02-28T03:20:15.906Z,1.73
2023-02-28T03:29:43.210Z,1.23
2023-02-28T03:39:39.153Z,2.00
2023-02-28T03:51:43.450Z,1.77
2023-02-28T03:54:34.258Z,1.75
2023-02-28T03:57:12.233Z,1.35
2023-02-28T04:03:05.273Z,1.60
2023-02-28T04:28:05.456Z,1.45
2023-02-28T04:33:33.310Z,1.98
2023-02-28T04:39:01.514Z,1.70
2023-02-28T04:48:30.563Z,1.65
2023-02-28T04:51:15.951Z,1.92
2023-02-28T04:53:43.662Z,1.77
2023-02-28T04:59:16.262Z,2.20
2023-02-28T05:07:55.050Z,1.63
2023-02-28T05:23:39.809Z,1.88
2023-02-28T05:26:13.395Z,2.25
2023-02-28T05:35:18.161Z,2.33
2023-02-28T05:37:45.301Z,1.90
2023-02-28T05:40:12.735Z,2.00
2023-02-28T05:42:42.295Z,1.77
2023-02-28T05:45:40.242Z,1.73
2023-02-28T05:58:31.919Z,1.98
2023-02-28T06:01:01.373Z,1.80
2023-02-28T06:06:06.246Z,1.80
2023-02-28T06:08:33.145Z,1.83
2023-02-28T06:11:59.758Z,1.95
2023-02-28T06:17:31.320Z,2.00
2023-02-28T06:20:52.492Z,1.65
2023-02-28T06:23:19.313Z,1.60
2023-02-28T06:29:07.455Z,1.98
2023-02-28T06:31:35.306Z,2.15
2023-02-28T06:34:41.552Z,3.33
2023-02-28T06:39:50.128Z,3.75
2023-02-28T06:45:43.203Z,3.95
2023-02-28T06:48:10.123Z,3.70
2023-02-28T06:50:40.037Z,3.65
2023-02-28T07:01:24.769Z,2.88
2023-02-28T07:06:29.257Z,2.67
2023-02-28T07:09:33.988Z,2.38
2023-02-28T07:16:22.742Z,2.42
2023-02-28T07:21:20.574Z,2.33
2023-02-28T07:24:24.814Z,2.50
2023-02-28T07:27:32.398Z,3.00
2023-02-28T07:30:02.605Z,2.78
2023-02-28T07:32:29.620Z,2.50
2023-02-28T07:34:56.577Z,2.30
2023-02-28T07:37:23.264Z,2.67
2023-02-28T07:39:50.044Z,2.42
2023-02-28T07:42:16.912Z,2.92
2023-02-28T07:45:14.510Z,2.83
2023-02-28T07:47:43.142Z,2.53
2023-02-28T07:50:15.200Z,2.38
2023-02-28T07:53:01.228Z,2.65
2023-02-28T07:55:28.104Z,2.55
2023-02-28T07:57:55.329Z,2.47
2023-02-28T08:03:55.819Z,3.53
2023-02-28T08:06:25.010Z,3.22
2023-02-28T08:08:52.431Z,3.00
2023-02-28T08:11:19.688Z,3.78
2023-02-28T08:14:08.370Z,3.28
2023-02-28T08:16:35.162Z,3.72
2023-02-28T08:19:02.088Z,3.20
2023-02-28T08:21:29.272Z,3.00
2023-02-28T08:23:57.937Z,3.42
2023-02-28T08:26:37.082Z,2.80
2023-02-28T08:29:03.876Z,2.95
2023-02-28T08:31:31.106Z,2.85
2023-02-28T08:33:59.853Z,3.08
2023-02-28T08:36:29.499Z,3.17
2023-02-28T08:39:11.756Z,2.90
2023-02-28T08:41:38.595Z,3.10
2023-02-28T08:44:08.363Z,3.20
2023-02-28T08:46:35.227Z,2.42
2023-02-28T08:49:33.448Z,3.17
2023-02-28T08:52:10.717Z,2.55
2023-02-28T08:54:48.062Z,2.60
2023-02-28T09:19:15.862Z,2.70
2023-02-28T09:21:50.094Z,3.83
2023-02-28T09:24:21.010Z,2.92
2023-02-28T09:27:01.750Z,3.03
2023-02-28T09:29:35.658Z,2.72
2023-02-28T09:32:08.763Z,3.08
2023-02-28T09:34:37.947Z,2.80
2023-02-28T09:37:07.417Z,2.60
2023-02-28T09:39:34.209Z,3.05
2023-02-28T09:42:02.203Z,2.65
2023-02-28T09:44:40.485Z,2.53
2023-02-28T09:47:16.389Z,2.67
2023-02-28T09:49:47.334Z,2.35
2023-02-28T09:52:24.617Z,2.75
2023-02-28T09:54:51.402Z,2.50
2023-02-28T09:57:40.036Z,2.85
2023-02-28T10:00:44.067Z,2.28
2023-02-28T10:06:20.978Z,2.20
2023-02-28T10:09:10.484Z,2.67
2023-02-28T10:11:39.699Z,2.13
2023-02-28T10:19:53.261Z,2.30
2023-02-28T10:25:50.101Z,2.00
2023-02-28T10:28:19.042Z,2.65
2023-02-28T10:30:51.233Z,2.35
2023-02-28T10:33:29.170Z,2.20
2023-02-28T10:35:56.103Z,1.70
2023-02-28T10:38:38.438Z,2.63
2023-02-28T10:41:07.273Z,2.05
2023-02-28T10:43:34.571Z,2.28
2023-02-28T10:46:10.321Z,2.35
2023-02-28T10:49:01.944Z,2.50
2023-02-28T10:51:40.084Z,2.08
2023-02-28T10:54:15.441Z,2.50
2023-02-28T10:56:43.076Z,2.30
2023-02-28T10:59:17.571Z,2.92
2023-02-28T11:02:01.747Z,2.30
2023-02-28T11:04:41.930Z,2.05
2023-02-28T11:07:24.457Z,2.80
2023-02-28T11:09:55.341Z,2.10
2023-02-28T11:12:24.836Z,2.30
2023-02-28T11:15:06.913Z,2.30
2023-02-28T11:17:34.202Z,2.50
2023-02-28T11:20:06.030Z,2.25
2023-02-28T11:22:38.178Z,1.48
2023-02-28T11:26:52.560Z,2.03
2023-02-28T11:28:30.700Z,2.08
2023-02-28T11:31:35.667Z,2.33
2023-02-28T11:34:02.642Z,2.47
2023-02-28T11:36:57.879Z,2.03
2023-02-28T11:42:33.351Z,2.10
2023-02-28T11:45:25.133Z,1.73
2023-02-28T11:48:16.812Z,2.20
2023-02-28T11:51:09.485Z,1.92
2023-02-28T11:54:04.318Z,1.77
2023-02-28T11:56:35.038Z,1.80
2023-02-28T11:59:25.736Z,2.13
2023-02-28T12:02:20.058Z,1.83
2023-02-28T12:05:07.847Z,1.67
2023-02-28T12:07:57.367Z,2.30
2023-02-28T12:10:31.153Z,2.20
2023-02-28T12:13:19.728Z,2.35
2023-02-28T12:16:42.476Z,1.80
2023-02-28T12:22:39.484Z,2.22
2023-02-28T12:25:38.358Z,1.80
2023-02-28T12:28:06.032Z,2.17
2023-02-28T12:30:36.586Z,1.88
2023-02-28T12:33:10.422Z,1.55
2023-02-28T12:35:42.463Z,2.03
2023-02-28T12:38:49.418Z,1.70
2023-02-28T12:41:33.737Z,1.70
2023-02-28T12:44:07.242Z,1.95
2023-02-28T12:46:43.699Z,1.83
2023-02-28T12:49:34.806Z,1.83
2023-02-28T12:52:29.797Z,2.17
2023-02-28T12:55:16.089Z,1.90
2023-02-28T12:57:47.072Z,1.73
2023-02-28T13:00:20.162Z,1.80
2023-02-28T13:03:16.271Z,1.75
2023-02-28T13:05:54.846Z,2.00
2023-02-28T13:09:02.511Z,2.28
2023-02-28T13:11:39.299Z,1.77
2023-02-28T13:14:17.315Z,1.73
2023-02-28T13:17:12.630Z,1.85
2023-02-28T13:19:44.475Z,1.83
2023-02-28T13:23:07.601Z,1.90
2023-02-28T13:25:34.428Z,1.90
2023-02-28T13:28:10.470Z,2.10
2023-02-28T13:31:00.628Z,2.03
2023-02-28T13:33:50.625Z,1.67
2023-02-28T13:36:20.629Z,2.05
2023-02-28T13:39:24.644Z,1.90
2023-02-28T13:41:51.409Z,2.05
2023-02-28T13:44:27.495Z,1.73
2023-02-28T13:46:57.246Z,2.15
2023-02-28T13:49:24.186Z,1.92
2023-02-28T13:52:07.192Z,1.70
2023-02-28T13:54:56.901Z,1.92
2023-02-28T13:57:48.659Z,2.05
2023-02-28T14:00:52.563Z,1.65
2023-02-28T14:05:46.958Z,1.90
2023-02-28T14:08:18.856Z,1.90
2023-02-28T14:10:49.545Z,2.08
2023-02-28T14:18:34.589Z,1.85
2023-02-28T14:21:15.213Z,2.05
2023-02-28T14:24:08.492Z,2.00
2023-02-28T14:27:04.926Z,2.28
2023-02-28T14:30:07.502Z,2.25
2023-02-28T14:33:05.336Z,1.67
2023-02-28T14:36:01.882Z,1.90
2023-02-28T14:38:56.332Z,1.88
2023-02-28T14:41:40.092Z,2.03
2023-02-28T14:44:21.086Z,1.80
2023-02-28T14:46:55.004Z,2.15
2023-02-28T14:49:30.573Z,1.85
2023-02-28T14:57:42.533Z,2.00
2023-02-28T15:00:39.674Z,2.03
2023-02-28T15:03:25.031Z,2.25
2023-02-28T15:06:19.832Z,1.95
2023-02-28T15:08:46.730Z,2.17
2023-02-28T15:11:17.190Z,1.95
2023-02-28T15:13:53.326Z,1.92
2023-02-28T15:16:20.028Z,1.98
2023-02-28T15:18:53.565Z,2.60
2023-02-28T15:21:45.556Z,2.25
2023-02-28T15:28:32.688Z,2.25
2023-02-28T15:31:23.340Z,2.50
2023-02-28T15:34:04.073Z,2.30
2023-02-28T15:36:38.381Z,2.20
2023-02-28T15:39:42.991Z,2.67
2023-02-28T15:42:18.119Z,2.63
2023-02-28T15:44:44.950Z,2.22
2023-02-28T15:47:23.686Z,2.22
2023-02-28T15:49:54.516Z,2.75
2023-02-28T15:52:32.614Z,2.50
2023-02-28T15:55:00.118Z,2.55
2023-02-28T15:57:30.057Z,2.40
2023-02-28T16:00:07.126Z,2.83
2023-02-28T16:02:37.131Z,2.50
2023-02-28T16:05:10.073Z,2.92
2023-02-28T16:07:38.892Z,2.65
2023-02-28T16:10:07.884Z,2.38
2023-02-28T16:12:37.570Z,2.88
2023-02-28T16:15:29.640Z,2.20
2023-02-28T16:17:57.869Z,2.40
2023-02-28T16:20:37.963Z,2.67
2023-02-28T16:23:04.950Z,2.65
2023-02-28T16:25:37.656Z,3.10
2023-02-28T16:28:05.143Z,2.22
2023-02-28T16:30:35.169Z,3.03
2023-02-28T16:33:02.986Z,2.90
2023-02-28T16:35:29.776Z,2.47
2023-02-28T16:38:08.791Z,2.75
2023-02-28T16:40:37.402Z,2.10
2023-02-28T16:43:10.776Z,2.50
2023-02-28T16:45:37.876Z,2.28
2023-02-28T16:48:04.680Z,2.83
2023-02-28T16:50:33.524Z,2.55
2023-02-28T16:53:00.321Z,2.03
2023-02-28T16:55:27.797Z,2.40
2023-02-28T16:57:57.977Z,2.47
2023-02-28T17:00:25.782Z,1.70
2023-02-28T17:02:53.200Z,2.10
2023-02-28T17:05:23.803Z,2.20
2023-02-28T17:07:50.683Z,2.10
2023-02-28T17:10:26.004Z,2.13
2023-02-28T17:12:55.028Z,1.83
2023-02-28T17:15:23.519Z,4.18
2023-02-28T17:17:50.918Z,4.00
2023-02-28T17:22:45.952Z,2.72
2023-02-28T17:25:12.886Z,2.60
2023-02-28T17:27:40.340Z,3.05
2023-02-28T17:30:19.326Z,4.03
2023-02-28T17:32:46.298Z,2.47
2023-02-28T17:38:25.989Z,2.90
2023-02-28T17:40:58.244Z,2.28
2023-02-28T17:45:55.378Z,2.97
2023-02-28T17:48:22.225Z,2.50
2023-02-28T17:50:49.055Z,2.67
2023-02-28T17:53:51.187Z,2.42
2023-02-28T17:56:24.324Z,2.20
2023-02-28T17:58:55.164Z,2.75
2023-02-28T18:01:29.154Z,2.50
2023-02-28T18:03:56.736Z,2.58
2023-02-28T18:06:34.446Z,2.42
2023-02-28T18:09:01.222Z,3.08
2023-02-28T18:11:42.485Z,2.35
2023-02-28T18:14:09.409Z,2.40
2023-02-28T18:16:36.706Z,2.30
2023-02-28T18:19:03.537Z,2.28
2023-02-28T18:21:30.780Z,2.47
2023-02-28T18:23:57.884Z,2.05
2023-02-28T18:26:24.695Z,2.50
2023-02-28T18:28:51.495Z,2.42
2023-02-28T18:31:20.327Z,2.20
2023-02-28T18:33:51.582Z,2.13
2023-02-28T18:36:20.836Z,2.35
2023-02-28T18:38:48.576Z,2.20
2023-02-28T19:11:00.616Z,2.42
2023-02-28T19:14:36.785Z,2.20
2023-02-28T19:36:22.126Z,2.00
2023-02-28T23:00:01.411Z,1.83
2023-02-28T23:08:32.455Z,2.15
2023-02-28T23:10:59.302Z,2.20
2023-02-28T23:13:26.260Z,2.60
2023-02-28T23:15:56.324Z,2.22
2023-02-28T23:18:25.773Z,2.47
2023-02-28T23:20:52.744Z,2.85
2023-02-28T23:23:19.620Z,2.30
2023-02-28T23:25:47.953Z,3.10
2023-02-28T23:28:17.488Z,3.28
2023-02-28T23:30:52.909Z,2.28
2023-02-28T23:33:19.789Z,2.15
2023-02-28T23:35:56.034Z,2.38
2023-02-28T23:38:23.078Z,2.20
2023-02-28T23:54:38.852Z,2.22
2023-02-28T23:57:05.735Z,2.33
